Data Viewer
| City | State | Eastern Time | Source | 1 Hour Temp Max | 1 Hour Temp Min | 1 Hour Dew Point Max | 1 Hour Dew Point Min | 1 Hour RH Max | 1 Hour RH Min | 1 Hour BP Max | 1 Hour BP Min | 1 Hour Precip | 1 Hour Wind Max | 1 Hour Wind Max Dir |
|---|---|---|---|---|---|---|---|---|---|---|---|---|---|---|
| Little Egg Harbor Twp. | NJ | 2026-05-06 17:00 | Mesonet | 66 | 64 | 59 | 57 | 80 | 75 | 29.81 | 29.78 | 0.00 | 26 | SW |
| Little Egg Harbor Twp. | NJ | 2026-05-07 06:00 | Mesonet | 52 | 52 | 48 | 47 | 85 | 82 | 29.86 | 29.83 | 0.00 | 19 | SW |
| Little Egg Harbor Twp. | NJ | 2026-05-07 15:00 | Mesonet | 59 | 56 | 47 | 43 | 69 | 58 | 29.84 | 29.80 | 0.00 | 16 | NNW |
| Little Egg Harbor Twp. | NJ | 2026-05-07 14:00 | Mesonet | 60 | 57 | 45 | 42 | 63 | 52 | 29.87 | 29.82 | 0.00 | 13 | N |
| Little Egg Harbor Twp. | NJ | 2026-05-07 13:00 | Mesonet | 60 | 58 | 46 | 41 | 61 | 50 | 29.89 | 29.85 | 0.00 | 9 | N |
| Little Egg Harbor Twp. | NJ | 2026-05-07 12:00 | Mesonet | 58 | 56 | 47 | 43 | 71 | 58 | 29.90 | 29.87 | 0.00 | 15 | N |
| Little Egg Harbor Twp. | NJ | 2026-05-07 11:00 | Mesonet | 56 | 54 | 47 | 45 | 75 | 69 | 29.91 | 29.89 | 0.00 | 16 | NNW |
| Little Egg Harbor Twp. | NJ | 2026-05-07 10:00 | Mesonet | 54 | 54 | 47 | 45 | 77 | 73 | 29.91 | 29.89 | 0.00 | 17 | N |
| Little Egg Harbor Twp. | NJ | 2026-05-07 09:00 | Mesonet | 54 | 52 | 48 | 46 | 81 | 75 | 29.91 | 29.88 | 0.00 | 16 | NNW |
| Little Egg Harbor Twp. | NJ | 2026-05-07 08:00 | Mesonet | 52 | 52 | 47 | 46 | 82 | 80 | 29.90 | 29.87 | 0.00 | 14 | N |
| Little Egg Harbor Twp. | NJ | 2026-05-07 07:00 | Mesonet | 52 | 52 | 47 | 46 | 84 | 81 | 29.89 | 29.84 | 0.00 | 17 | NNW |
| Little Egg Harbor Twp. | NJ | 2026-05-07 05:00 | Mesonet | 53 | 52 | 49 | 48 | 86 | 84 | 29.85 | 29.81 | 0.00 | 27 | WSW |
| Little Egg Harbor Twp. | NJ | 2026-05-06 18:00 | Mesonet | 65 | 64 | 58 | 57 | 78 | 76 | 29.81 | 29.78 | 0.00 | 26 | SW |
| Little Egg Harbor Twp. | NJ | 2026-05-07 04:00 | Mesonet | 56 | 53 | 51 | 49 | 88 | 83 | 29.84 | 29.81 | 0.01 | 28 | SSW |
| Little Egg Harbor Twp. | NJ | 2026-05-07 03:00 | Mesonet | 60 | 55 | 56 | 51 | 88 | 81 | 29.84 | 29.78 | 0.01 | 31 | SW |
| Little Egg Harbor Twp. | NJ | 2026-05-07 02:00 | Mesonet | 59 | 58 | 55 | 54 | 87 | 87 | 29.81 | 29.77 | 0.00 | 12 | SW |
| Little Egg Harbor Twp. | NJ | 2026-05-07 01:00 | Mesonet | 59 | 58 | 55 | 54 | 87 | 86 | 29.82 | 29.78 | 0.00 | 10 | SW |
| Little Egg Harbor Twp. | NJ | 2026-05-07 00:00 | Mesonet | 59 | 58 | 55 | 54 | 86 | 85 | 29.81 | 29.78 | 0.00 | 12 | SW |
| Little Egg Harbor Twp. | NJ | 2026-05-06 23:00 | Mesonet | 60 | 58 | 55 | 53 | 86 | 83 | 29.83 | 29.79 | 0.00 | 14 | SW |
| Little Egg Harbor Twp. | NJ | 2026-05-06 22:00 | Mesonet | 60 | 59 | 56 | 54 | 85 | 83 | 29.84 | 29.81 | 0.00 | 11 | SW |
| Little Egg Harbor Twp. | NJ | 2026-05-06 21:00 | Mesonet | 63 | 60 | 57 | 55 | 83 | 79 | 29.84 | 29.79 | 0.00 | 15 | SW |
| Little Egg Harbor Twp. | NJ | 2026-05-06 20:00 | Mesonet | 66 | 63 | 58 | 56 | 79 | 75 | 29.82 | 29.80 | 0.00 | 19 | SW |
| Little Egg Harbor Twp. | NJ | 2026-05-06 19:00 | Mesonet | 67 | 65 | 58 | 57 | 78 | 73 | 29.82 | 29.79 | 0.00 | 24 | SW |
| Little Egg Harbor Twp. | NJ | 2026-05-07 16:00 | Mesonet | 57 | 56 | 46 | 45 | 68 | 65 | 29.83 | 29.82 | 0.00 | 14 | N |
data collection created in 0.0077509880065918 (queried in 0.001961) rendered in: 5.2928924560547E-5

